sensor_id;sensor_type;location;lat;lon;timestamp;P1;durP1;ratioP1;P2;durP2;ratioP2
13741;SDS011;8461;52.356;10.704;2023-01-25T00:02:05;6.33;;;4.90;;
13741;SDS011;8461;52.356;10.704;2023-01-25T00:04:31;6.63;;;4.73;;
13741;SDS011;8461;52.356;10.704;2023-01-25T00:06:56;7.60;;;5.37;;
13741;SDS011;8461;52.356;10.704;2023-01-25T00:09:23;8.63;;;6.10;;
13741;SDS011;8461;52.356;10.704;2023-01-25T00:11:49;9.10;;;6.00;;
13741;SDS011;8461;52.356;10.704;2023-01-25T00:14:17;7.07;;;5.37;;
13741;SDS011;8461;52.356;10.704;2023-01-25T00:16:43;8.10;;;4.63;;
13741;SDS011;8461;52.356;10.704;2023-01-25T00:19:09;6.37;;;4.67;;
13741;SDS011;8461;52.356;10.704;2023-01-25T00:21:35;8.67;;;5.47;;
13741;SDS011;8461;52.356;10.704;2023-01-25T00:24:02;8.53;;;5.90;;
13741;SDS011;8461;52.356;10.704;2023-01-25T00:26:28;11.20;;;7.27;;
13741;SDS011;8461;52.356;10.704;2023-01-25T00:28:55;12.00;;;7.70;;
13741;SDS011;8461;52.356;10.704;2023-01-25T00:39:02;8.43;;;6.23;;
13741;SDS011;8461;52.356;10.704;2023-01-25T00:41:28;8.23;;;5.63;;
13741;SDS011;8461;52.356;10.704;2023-01-25T00:43:54;8.83;;;5.27;;
13741;SDS011;8461;52.356;10.704;2023-01-25T00:46:20;6.77;;;4.90;;
13741;SDS011;8461;52.356;10.704;2023-01-25T00:48:45;12.30;;;7.50;;
13741;SDS011;8461;52.356;10.704;2023-01-25T00:51:11;7.07;;;5.57;;
13741;SDS011;8461;52.356;10.704;2023-01-25T00:53:36;7.47;;;5.50;;
13741;SDS011;8461;52.356;10.704;2023-01-25T00:56:02;6.90;;;5.03;;
13741;SDS011;8461;52.356;10.704;2023-01-25T00:58:28;5.60;;;4.40;;
13741;SDS011;8461;52.356;10.704;2023-01-25T01:00:54;7.67;;;5.60;;
13741;SDS011;8461;52.356;10.704;2023-01-25T01:03:20;6.60;;;4.97;;
13741;SDS011;8461;52.356;10.704;2023-01-25T01:05:46;8.10;;;5.50;;
13741;SDS011;8461;52.356;10.704;2023-01-25T01:08:13;8.57;;;6.03;;
13741;SDS011;8461;52.356;10.704;2023-01-25T01:10:39;10.83;;;7.50;;
13741;SDS011;8461;52.356;10.704;2023-01-25T01:13:06;6.97;;;5.40;;
13741;SDS011;8461;52.356;10.704;2023-01-25T01:15:34;5.63;;;4.27;;
13741;SDS011;8461;52.356;10.704;2023-01-25T01:18:00;5.87;;;4.37;;
13741;SDS011;8461;52.356;10.704;2023-01-25T01:20:26;7.53;;;5.53;;
13741;SDS011;8461;52.356;10.704;2023-01-25T01:22:52;7.90;;;5.40;;
13741;SDS011;8461;52.356;10.704;2023-01-25T01:25:19;7.73;;;5.43;;
13741;SDS011;8461;52.356;10.704;2023-01-25T01:27:45;7.43;;;5.73;;
13741;SDS011;8461;52.356;10.704;2023-01-25T01:30:10;8.23;;;5.50;;
13741;SDS011;8461;52.356;10.704;2023-01-25T01:32:36;6.70;;;4.80;;
13741;SDS011;8461;52.356;10.704;2023-01-25T01:35:02;7.33;;;5.27;;
13741;SDS011;8461;52.356;10.704;2023-01-25T01:37:27;9.43;;;5.33;;
13741;SDS011;8461;52.356;10.704;2023-01-25T01:39:53;7.13;;;5.10;;
13741;SDS011;8461;52.356;10.704;2023-01-25T01:42:19;5.07;;;3.87;;
13741;SDS011;8461;52.356;10.704;2023-01-25T01:44:48;8.80;;;6.03;;
13741;SDS011;8461;52.356;10.704;2023-01-25T01:47:24;6.77;;;5.00;;
13741;SDS011;8461;52.356;10.704;2023-01-25T01:49:53;8.10;;;5.47;;
13741;SDS011;8461;52.356;10.704;2023-01-25T01:52:25;8.07;;;5.67;;
13741;SDS011;8461;52.356;10.704;2023-01-25T01:55:05;8.63;;;6.10;;
13741;SDS011;8461;52.356;10.704;2023-01-25T01:57:39;9.30;;;5.97;;
13741;SDS011;8461;52.356;10.704;2023-01-25T02:00:07;9.03;;;5.50;;
13741;SDS011;8461;52.356;10.704;2023-01-25T02:02:38;8.53;;;5.80;;
13741;SDS011;8461;52.356;10.704;2023-01-25T02:05:05;8.63;;;6.03;;
13741;SDS011;8461;52.356;10.704;2023-01-25T02:07:36;8.33;;;5.67;;
13741;SDS011;8461;52.356;10.704;2023-01-25T02:10:04;10.23;;;6.13;;
13741;SDS011;8461;52.356;10.704;2023-01-25T02:12:31;9.30;;;6.60;;
13741;SDS011;8461;52.356;10.704;2023-01-25T02:14:57;9.03;;;6.63;;
13741;SDS011;8461;52.356;10.704;2023-01-25T02:17:29;8.00;;;5.70;;
13741;SDS011;8461;52.356;10.704;2023-01-25T02:20:05;10.13;;;6.07;;
13741;SDS011;8461;52.356;10.704;2023-01-25T02:25:32;10.63;;;7.27;;
13741;SDS011;8461;52.356;10.704;2023-01-25T02:30:32;11.77;;;7.83;;
13741;SDS011;8461;52.356;10.704;2023-01-25T02:32:58;11.27;;;7.60;;
13741;SDS011;8461;52.356;10.704;2023-01-25T02:35:34;14.67;;;8.53;;
13741;SDS011;8461;52.356;10.704;2023-01-25T02:38:15;14.63;;;8.93;;
13741;SDS011;8461;52.356;10.704;2023-01-25T02:43:17;12.53;;;8.93;;
13741;SDS011;8461;52.356;10.704;2023-01-25T02:45:44;12.73;;;9.17;;
13741;SDS011;8461;52.356;10.704;2023-01-25T02:48:13;14.90;;;9.67;;
13741;SDS011;8461;52.356;10.704;2023-01-25T02:50:39;15.57;;;10.47;;
13741;SDS011;8461;52.356;10.704;2023-01-25T02:53:04;16.03;;;9.90;;
13741;SDS011;8461;52.356;10.704;2023-01-25T02:55:30;13.87;;;9.40;;
13741;SDS011;8461;52.356;10.704;2023-01-25T02:57:55;16.20;;;10.50;;
13741;SDS011;8461;52.356;10.704;2023-01-25T03:00:21;15.77;;;10.30;;
13741;SDS011;8461;52.356;10.704;2023-01-25T03:02:46;16.43;;;10.13;;
13741;SDS011;8461;52.356;10.704;2023-01-25T03:05:12;15.00;;;10.17;;
13741;SDS011;8461;52.356;10.704;2023-01-25T03:07:38;17.90;;;10.57;;
13741;SDS011;8461;52.356;10.704;2023-01-25T03:10:03;17.47;;;10.27;;
13741;SDS011;8461;52.356;10.704;2023-01-25T03:12:29;17.57;;;11.23;;
13741;SDS011;8461;52.356;10.704;2023-01-25T03:14:55;18.27;;;9.93;;
13741;SDS011;8461;52.356;10.704;2023-01-25T03:17:20;17.67;;;11.80;;
13741;SDS011;8461;52.356;10.704;2023-01-25T03:19:46;16.83;;;10.97;;
13741;SDS011;8461;52.356;10.704;2023-01-25T03:22:11;19.93;;;10.33;;
13741;SDS011;8461;52.356;10.704;2023-01-25T03:24:37;19.13;;;11.57;;
13741;SDS011;8461;52.356;10.704;2023-01-25T03:27:02;18.47;;;11.67;;
13741;SDS011;8461;52.356;10.704;2023-01-25T03:29:38;23.50;;;13.63;;
13741;SDS011;8461;52.356;10.704;2023-01-25T03:32:05;20.83;;;11.77;;
13741;SDS011;8461;52.356;10.704;2023-01-25T03:34:31;22.90;;;13.03;;
13741;SDS011;8461;52.356;10.704;2023-01-25T03:36:57;20.03;;;12.07;;
13741;SDS011;8461;52.356;10.704;2023-01-25T03:39:22;21.23;;;11.90;;
13741;SDS011;8461;52.356;10.704;2023-01-25T03:41:48;22.53;;;13.40;;
13741;SDS011;8461;52.356;10.704;2023-01-25T03:44:13;24.97;;;13.30;;
13741;SDS011;8461;52.356;10.704;2023-01-25T03:46:39;21.53;;;11.53;;
13741;SDS011;8461;52.356;10.704;2023-01-25T03:49:05;22.07;;;12.33;;
13741;SDS011;8461;52.356;10.704;2023-01-25T03:51:31;22.47;;;12.93;;
13741;SDS011;8461;52.356;10.704;2023-01-25T03:53:57;23.03;;;12.50;;
13741;SDS011;8461;52.356;10.704;2023-01-25T03:56:22;22.07;;;13.07;;
13741;SDS011;8461;52.356;10.704;2023-01-25T03:58:48;23.90;;;12.90;;
13741;SDS011;8461;52.356;10.704;2023-01-25T04:01:13;27.50;;;14.63;;
13741;SDS011;8461;52.356;10.704;2023-01-25T04:03:39;14.23;;;7.00;;
13741;SDS011;8461;52.356;10.704;2023-01-25T04:06:05;27.53;;;14.47;;
13741;SDS011;8461;52.356;10.704;2023-01-25T04:08:31;23.03;;;12.60;;
13741;SDS011;8461;52.356;10.704;2023-01-25T04:10:59;23.97;;;13.13;;
13741;SDS011;8461;52.356;10.704;2023-01-25T04:13:27;25.53;;;13.07;;
13741;SDS011;8461;52.356;10.704;2023-01-25T04:15:52;25.97;;;13.93;;
13741;SDS011;8461;52.356;10.704;2023-01-25T04:18:18;25.70;;;14.10;;
13741;SDS011;8461;52.356;10.704;2023-01-25T04:20:44;24.50;;;14.20;;
13741;SDS011;8461;52.356;10.704;2023-01-25T04:23:10;22.90;;;13.10;;
13741;SDS011;8461;52.356;10.704;2023-01-25T04:25:36;28.83;;;14.63;;
13741;SDS011;8461;52.356;10.704;2023-01-25T04:28:02;21.73;;;13.63;;
13741;SDS011;8461;52.356;10.704;2023-01-25T04:30:28;26.73;;;14.37;;
13741;SDS011;8461;52.356;10.704;2023-01-25T04:32:54;26.70;;;14.17;;
13741;SDS011;8461;52.356;10.704;2023-01-25T04:35:19;28.13;;;14.47;;
13741;SDS011;8461;52.356;10.704;2023-01-25T04:37:51;28.57;;;15.33;;
13741;SDS011;8461;52.356;10.704;2023-01-25T04:40:21;22.00;;;12.70;;
13741;SDS011;8461;52.356;10.704;2023-01-25T04:42:47;26.33;;;13.20;;
13741;SDS011;8461;52.356;10.704;2023-01-25T04:45:12;23.03;;;11.30;;
13741;SDS011;8461;52.356;10.704;2023-01-25T04:47:38;22.57;;;11.83;;
13741;SDS011;8461;52.356;10.704;2023-01-25T04:50:03;21.00;;;10.00;;
13741;SDS011;8461;52.356;10.704;2023-01-25T04:52:29;13.63;;;7.93;;
13741;SDS011;8461;52.356;10.704;2023-01-25T04:54:55;19.20;;;10.17;;
13741;SDS011;8461;52.356;10.704;2023-01-25T04:57:20;15.37;;;8.23;;
13741;SDS011;8461;52.356;10.704;2023-01-25T04:59:46;18.73;;;9.10;;
13741;SDS011;8461;52.356;10.704;2023-01-25T05:02:11;20.60;;;10.10;;
13741;SDS011;8461;52.356;10.704;2023-01-25T05:04:37;19.83;;;10.17;;
13741;SDS011;8461;52.356;10.704;2023-01-25T05:07:02;18.73;;;9.73;;
13741;SDS011;8461;52.356;10.704;2023-01-25T05:09:28;18.23;;;9.70;;
13741;SDS011;8461;52.356;10.704;2023-01-25T05:11:53;15.60;;;9.93;;
13741;SDS011;8461;52.356;10.704;2023-01-25T05:14:19;16.63;;;9.67;;
13741;SDS011;8461;52.356;10.704;2023-01-25T05:16:45;16.67;;;9.60;;
13741;SDS011;8461;52.356;10.704;2023-01-25T05:19:11;17.43;;;9.37;;
13741;SDS011;8461;52.356;10.704;2023-01-25T05:21:37;16.67;;;9.13;;
13741;SDS011;8461;52.356;10.704;2023-01-25T05:24:29;15.00;;;9.27;;
13741;SDS011;8461;52.356;10.704;2023-01-25T05:26:56;16.67;;;9.30;;
13741;SDS011;8461;52.356;10.704;2023-01-25T05:29:26;19.67;;;10.33;;
13741;SDS011;8461;52.356;10.704;2023-01-25T05:31:52;18.00;;;9.13;;
13741;SDS011;8461;52.356;10.704;2023-01-25T05:34:17;13.57;;;8.00;;
13741;SDS011;8461;52.356;10.704;2023-01-25T05:36:43;13.13;;;8.00;;
13741;SDS011;8461;52.356;10.704;2023-01-25T05:39:09;12.90;;;8.03;;
13741;SDS011;8461;52.356;10.704;2023-01-25T05:41:34;16.90;;;9.40;;
13741;SDS011;8461;52.356;10.704;2023-01-25T05:44:00;16.67;;;9.63;;
13741;SDS011;8461;52.356;10.704;2023-01-25T05:46:26;14.30;;;9.53;;
13741;SDS011;8461;52.356;10.704;2023-01-25T05:48:52;14.57;;;9.07;;
13741;SDS011;8461;52.356;10.704;2023-01-25T05:51:17;11.67;;;7.83;;
13741;SDS011;8461;52.356;10.704;2023-01-25T05:53:43;13.00;;;8.10;;
13741;SDS011;8461;52.356;10.704;2023-01-25T05:56:08;15.00;;;8.40;;
13741;SDS011;8461;52.356;10.704;2023-01-25T05:58:34;14.23;;;8.03;;
13741;SDS011;8461;52.356;10.704;2023-01-25T06:01:01;17.67;;;8.70;;
13741;SDS011;8461;52.356;10.704;2023-01-25T06:03:27;12.00;;;6.70;;
13741;SDS011;8461;52.356;10.704;2023-01-25T06:05:53;13.30;;;6.97;;
13741;SDS011;8461;52.356;10.704;2023-01-25T06:08:23;12.33;;;6.70;;
13741;SDS011;8461;52.356;10.704;2023-01-25T06:10:49;12.50;;;6.40;;
13741;SDS011;8461;52.356;10.704;2023-01-25T06:13:15;10.87;;;6.60;;
13741;SDS011;8461;52.356;10.704;2023-01-25T06:15:41;14.77;;;7.30;;
13741;SDS011;8461;52.356;10.704;2023-01-25T06:18:07;15.57;;;8.03;;
13741;SDS011;8461;52.356;10.704;2023-01-25T06:20:32;15.67;;;9.70;;
13741;SDS011;8461;52.356;10.704;2023-01-25T06:22:58;10.67;;;7.20;;
13741;SDS011;8461;52.356;10.704;2023-01-25T06:25:23;14.47;;;8.53;;
13741;SDS011;8461;52.356;10.704;2023-01-25T06:27:49;11.57;;;7.30;;
13741;SDS011;8461;52.356;10.704;2023-01-25T06:30:15;11.70;;;7.73;;
13741;SDS011;8461;52.356;10.704;2023-01-25T06:32:40;13.83;;;7.90;;
13741;SDS011;8461;52.356;10.704;2023-01-25T06:35:06;14.20;;;7.93;;
13741;SDS011;8461;52.356;10.704;2023-01-25T06:37:32;14.40;;;8.17;;
13741;SDS011;8461;52.356;10.704;2023-01-25T06:39:57;14.93;;;8.40;;
13741;SDS011;8461;52.356;10.704;2023-01-25T06:42:23;14.27;;;7.90;;
13741;SDS011;8461;52.356;10.704;2023-01-25T06:44:49;11.73;;;7.80;;
13741;SDS011;8461;52.356;10.704;2023-01-25T06:47:14;14.03;;;7.43;;
13741;SDS011;8461;52.356;10.704;2023-01-25T06:49:40;12.93;;;7.73;;
13741;SDS011;8461;52.356;10.704;2023-01-25T06:52:05;17.93;;;9.50;;
13741;SDS011;8461;52.356;10.704;2023-01-25T06:54:31;15.67;;;8.20;;
13741;SDS011;8461;52.356;10.704;2023-01-25T06:56:57;12.57;;;7.60;;
13741;SDS011;8461;52.356;10.704;2023-01-25T06:59:22;15.17;;;7.53;;
13741;SDS011;8461;52.356;10.704;2023-01-25T07:01:48;15.13;;;7.03;;
13741;SDS011;8461;52.356;10.704;2023-01-25T07:04:14;14.63;;;8.07;;
13741;SDS011;8461;52.356;10.704;2023-01-25T07:06:39;17.33;;;8.33;;
13741;SDS011;8461;52.356;10.704;2023-01-25T07:09:07;17.67;;;9.77;;
13741;SDS011;8461;52.356;10.704;2023-01-25T07:11:34;18.90;;;8.80;;
13741;SDS011;8461;52.356;10.704;2023-01-25T07:14:00;27.77;;;13.87;;
13741;SDS011;8461;52.356;10.704;2023-01-25T07:16:27;24.27;;;12.47;;
13741;SDS011;8461;52.356;10.704;2023-01-25T07:18:53;24.13;;;13.10;;
13741;SDS011;8461;52.356;10.704;2023-01-25T07:21:19;20.43;;;8.90;;
13741;SDS011;8461;52.356;10.704;2023-01-25T07:23:47;20.80;;;11.40;;
13741;SDS011;8461;52.356;10.704;2023-01-25T07:26:20;22.60;;;10.83;;
13741;SDS011;8461;52.356;10.704;2023-01-25T07:28:47;16.93;;;9.13;;
13741;SDS011;8461;52.356;10.704;2023-01-25T07:31:14;19.07;;;10.03;;
13741;SDS011;8461;52.356;10.704;2023-01-25T07:33:40;18.37;;;9.93;;
13741;SDS011;8461;52.356;10.704;2023-01-25T07:36:06;21.70;;;9.87;;
13741;SDS011;8461;52.356;10.704;2023-01-25T07:38:34;17.00;;;9.17;;
13741;SDS011;8461;52.356;10.704;2023-01-25T07:41:00;18.37;;;9.57;;
13741;SDS011;8461;52.356;10.704;2023-01-25T07:43:26;30.70;;;13.33;;
13741;SDS011;8461;52.356;10.704;2023-01-25T07:45:53;17.57;;;9.23;;
13741;SDS011;8461;52.356;10.704;2023-01-25T07:48:23;16.90;;;10.10;;
13741;SDS011;8461;52.356;10.704;2023-01-25T07:50:49;19.63;;;10.00;;
13741;SDS011;8461;52.356;10.704;2023-01-25T07:53:34;17.90;;;9.67;;
13741;SDS011;8461;52.356;10.704;2023-01-25T07:56:00;21.17;;;9.97;;
13741;SDS011;8461;52.356;10.704;2023-01-25T07:58:25;19.57;;;10.33;;
13741;SDS011;8461;52.356;10.704;2023-01-25T08:00:51;18.63;;;9.70;;
13741;SDS011;8461;52.356;10.704;2023-01-25T08:03:17;19.27;;;9.70;;
13741;SDS011;8461;52.356;10.704;2023-01-25T08:05:46;19.03;;;9.63;;
13741;SDS011;8461;52.356;10.704;2023-01-25T08:08:11;18.47;;;9.50;;
13741;SDS011;8461;52.356;10.704;2023-01-25T08:10:37;22.60;;;11.47;;
13741;SDS011;8461;52.356;10.704;2023-01-25T08:13:03;22.20;;;9.80;;
13741;SDS011;8461;52.356;10.704;2023-01-25T08:15:28;22.57;;;9.97;;
13741;SDS011;8461;52.356;10.704;2023-01-25T08:17:57;20.07;;;9.57;;
13741;SDS011;8461;52.356;10.704;2023-01-25T08:20:24;21.70;;;10.43;;
13741;SDS011;8461;52.356;10.704;2023-01-25T08:22:50;20.10;;;10.33;;
13741;SDS011;8461;52.356;10.704;2023-01-25T08:25:16;21.13;;;9.87;;
13741;SDS011;8461;52.356;10.704;2023-01-25T08:27:42;24.50;;;11.50;;
13741;SDS011;8461;52.356;10.704;2023-01-25T08:30:08;24.17;;;10.40;;
13741;SDS011;8461;52.356;10.704;2023-01-25T08:32:36;21.87;;;10.07;;
13741;SDS011;8461;52.356;10.704;2023-01-25T08:35:01;20.20;;;9.63;;
13741;SDS011;8461;52.356;10.704;2023-01-25T08:37:27;18.77;;;9.23;;
13741;SDS011;8461;52.356;10.704;2023-01-25T08:39:53;22.20;;;9.87;;
13741;SDS011;8461;52.356;10.704;2023-01-25T08:42:22;24.33;;;10.07;;
13741;SDS011;8461;52.356;10.704;2023-01-25T08:44:47;20.03;;;10.23;;
13741;SDS011;8461;52.356;10.704;2023-01-25T08:47:13;18.20;;;8.90;;
13741;SDS011;8461;52.356;10.704;2023-01-25T08:49:39;17.17;;;8.87;;
13741;SDS011;8461;52.356;10.704;2023-01-25T08:52:04;20.43;;;10.10;;
13741;SDS011;8461;52.356;10.704;2023-01-25T08:54:30;22.70;;;10.63;;
13741;SDS011;8461;52.356;10.704;2023-01-25T08:56:55;21.30;;;10.10;;
13741;SDS011;8461;52.356;10.704;2023-01-25T08:59:21;23.43;;;10.30;;
13741;SDS011;8461;52.356;10.704;2023-01-25T09:01:47;22.43;;;10.97;;
13741;SDS011;8461;52.356;10.704;2023-01-25T09:04:12;21.03;;;10.30;;
13741;SDS011;8461;52.356;10.704;2023-01-25T09:06:38;24.20;;;10.27;;
13741;SDS011;8461;52.356;10.704;2023-01-25T09:09:03;19.10;;;9.70;;
13741;SDS011;8461;52.356;10.704;2023-01-25T09:11:29;21.13;;;8.70;;
13741;SDS011;8461;52.356;10.704;2023-01-25T09:13:57;19.80;;;9.60;;
13741;SDS011;8461;52.356;10.704;2023-01-25T09:16:23;21.53;;;9.37;;
13741;SDS011;8461;52.356;10.704;2023-01-25T09:18:53;14.40;;;7.40;;
13741;SDS011;8461;52.356;10.704;2023-01-25T09:21:21;17.53;;;8.67;;
13741;SDS011;8461;52.356;10.704;2023-01-25T09:23:47;17.30;;;7.80;;
13741;SDS011;8461;52.356;10.704;2023-01-25T09:26:14;20.50;;;9.77;;
13741;SDS011;8461;52.356;10.704;2023-01-25T09:28:41;25.33;;;8.73;;
13741;SDS011;8461;52.356;10.704;2023-01-25T09:31:08;21.63;;;9.67;;
13741;SDS011;8461;52.356;10.704;2023-01-25T09:33:38;20.30;;;9.43;;
13741;SDS011;8461;52.356;10.704;2023-01-25T09:36:04;17.97;;;9.13;;
13741;SDS011;8461;52.356;10.704;2023-01-25T09:38:31;21.03;;;9.67;;
13741;SDS011;8461;52.356;10.704;2023-01-25T09:43:54;12.40;;;4.53;;
13741;SDS011;8461;52.356;10.704;2023-01-25T09:46:44;13.07;;;6.30;;
13741;SDS011;8461;52.356;10.704;2023-01-25T09:54:27;18.40;;;8.70;;
13741;SDS011;8461;52.356;10.704;2023-01-25T09:56:54;18.87;;;9.43;;
13741;SDS011;8461;52.356;10.704;2023-01-25T09:59:22;18.07;;;9.00;;
13741;SDS011;8461;52.356;10.704;2023-01-25T10:04:28;23.07;;;10.70;;
13741;SDS011;8461;52.356;10.704;2023-01-25T10:07:02;21.90;;;10.53;;
13741;SDS011;8461;52.356;10.704;2023-01-25T10:12:31;20.53;;;9.60;;
13741;SDS011;8461;52.356;10.704;2023-01-25T10:15:00;21.10;;;9.83;;
13741;SDS011;8461;52.356;10.704;2023-01-25T10:17:38;21.60;;;10.73;;
13741;SDS011;8461;52.356;10.704;2023-01-25T10:22:44;27.40;;;10.67;;
13741;SDS011;8461;52.356;10.704;2023-01-25T10:25:23;24.80;;;10.73;;
13741;SDS011;8461;52.356;10.704;2023-01-25T10:27:52;21.03;;;9.27;;
13741;SDS011;8461;52.356;10.704;2023-01-25T10:31:18;21.77;;;10.60;;
13741;SDS011;8461;52.356;10.704;2023-01-25T10:33:43;22.13;;;11.20;;
13741;SDS011;8461;52.356;10.704;2023-01-25T10:36:12;23.07;;;11.43;;
13741;SDS011;8461;52.356;10.704;2023-01-25T10:38:41;23.37;;;11.43;;
13741;SDS011;8461;52.356;10.704;2023-01-25T10:41:18;23.77;;;12.03;;
13741;SDS011;8461;52.356;10.704;2023-01-25T10:43:48;19.40;;;10.67;;
13741;SDS011;8461;52.356;10.704;2023-01-25T10:46:34;21.43;;;11.40;;
13741;SDS011;8461;52.356;10.704;2023-01-25T10:49:11;24.17;;;11.57;;
13741;SDS011;8461;52.356;10.704;2023-01-25T10:51:52;29.07;;;12.20;;
13741;SDS011;8461;52.356;10.704;2023-01-25T10:54:18;24.50;;;11.27;;
13741;SDS011;8461;52.356;10.704;2023-01-25T10:56:46;23.33;;;12.37;;
13741;SDS011;8461;52.356;10.704;2023-01-25T10:59:22;26.83;;;12.53;;
13741;SDS011;8461;52.356;10.704;2023-01-25T11:01:49;25.63;;;11.37;;
13741;SDS011;8461;52.356;10.704;2023-01-25T11:07:24;23.03;;;11.83;;
13741;SDS011;8461;52.356;10.704;2023-01-25T11:09:51;26.83;;;11.30;;
13741;SDS011;8461;52.356;10.704;2023-01-25T11:12:17;24.67;;;11.63;;
13741;SDS011;8461;52.356;10.704;2023-01-25T11:14:45;30.07;;;12.70;;
13741;SDS011;8461;52.356;10.704;2023-01-25T11:17:21;30.13;;;13.03;;
13741;SDS011;8461;52.356;10.704;2023-01-25T11:20:03;35.67;;;14.50;;
13741;SDS011;8461;52.356;10.704;2023-01-25T11:22:53;33.93;;;13.67;;
13741;SDS011;8461;52.356;10.704;2023-01-25T11:25:24;25.33;;;12.93;;
13741;SDS011;8461;52.356;10.704;2023-01-25T11:30:42;31.37;;;14.63;;
13741;SDS011;8461;52.356;10.704;2023-01-25T11:33:10;30.80;;;14.73;;
13741;SDS011;8461;52.356;10.704;2023-01-25T11:35:37;39.20;;;16.30;;
13741;SDS011;8461;52.356;10.704;2023-01-25T11:38:26;36.97;;;16.73;;
13741;SDS011;8461;52.356;10.704;2023-01-25T11:41:02;46.43;;;20.53;;
13741;SDS011;8461;52.356;10.704;2023-01-25T11:49:22;68.43;;;27.10;;
13741;SDS011;8461;52.356;10.704;2023-01-25T11:51:54;68.47;;;28.47;;
13741;SDS011;8461;52.356;10.704;2023-01-25T11:57:15;62.60;;;24.87;;
13741;SDS011;8461;52.356;10.704;2023-01-25T12:02:47;62.80;;;27.87;;
13741;SDS011;8461;52.356;10.704;2023-01-25T12:18:33;43.20;;;18.63;;
13741;SDS011;8461;52.356;10.704;2023-01-25T12:24:03;40.57;;;17.63;;
13741;SDS011;8461;52.356;10.704;2023-01-25T12:34:37;37.30;;;15.10;;
13741;SDS011;8461;52.356;10.704;2023-01-25T12:37:14;31.03;;;13.03;;
13741;SDS011;8461;52.356;10.704;2023-01-25T12:39:47;15.67;;;7.87;;
13741;SDS011;8461;52.356;10.704;2023-01-25T12:42:23;19.03;;;10.07;;
13741;SDS011;8461;52.356;10.704;2023-01-25T12:45:01;22.67;;;10.63;;
13741;SDS011;8461;52.356;10.704;2023-01-25T12:47:36;19.87;;;9.87;;
13741;SDS011;8461;52.356;10.704;2023-01-25T12:52:55;22.70;;;12.43;;
13741;SDS011;8461;52.356;10.704;2023-01-25T12:55:28;21.53;;;11.03;;
13741;SDS011;8461;52.356;10.704;2023-01-25T13:03:24;23.47;;;11.63;;
13741;SDS011;8461;52.356;10.704;2023-01-25T13:06:21;26.03;;;12.57;;
13741;SDS011;8461;52.356;10.704;2023-01-25T13:11:37;22.87;;;11.53;;
13741;SDS011;8461;52.356;10.704;2023-01-25T13:16:42;25.20;;;11.17;;
13741;SDS011;8461;52.356;10.704;2023-01-25T13:21:54;18.97;;;9.57;;
13741;SDS011;8461;52.356;10.704;2023-01-25T13:24:25;21.60;;;9.57;;
13741;SDS011;8461;52.356;10.704;2023-01-25T13:39:56;25.13;;;10.43;;
13741;SDS011;8461;52.356;10.704;2023-01-25T13:42:28;19.07;;;10.57;;
13741;SDS011;8461;52.356;10.704;2023-01-25T13:45:00;21.27;;;10.73;;
13741;SDS011;8461;52.356;10.704;2023-01-25T13:47:29;24.23;;;10.47;;
13741;SDS011;8461;52.356;10.704;2023-01-25T13:52:57;22.17;;;11.10;;
13741;SDS011;8461;52.356;10.704;2023-01-25T13:55:50;21.63;;;8.97;;
13741;SDS011;8461;52.356;10.704;2023-01-25T13:58:44;18.57;;;9.77;;
13741;SDS011;8461;52.356;10.704;2023-01-25T14:01:13;25.10;;;11.37;;
13741;SDS011;8461;52.356;10.704;2023-01-25T14:03:44;28.43;;;11.43;;
13741;SDS011;8461;52.356;10.704;2023-01-25T14:08:50;24.37;;;11.63;;
13741;SDS011;8461;52.356;10.704;2023-01-25T14:11:28;21.93;;;10.53;;
13741;SDS011;8461;52.356;10.704;2023-01-25T14:14:00;20.10;;;10.17;;
13741;SDS011;8461;52.356;10.704;2023-01-25T14:16:26;26.30;;;12.17;;
13741;SDS011;8461;52.356;10.704;2023-01-25T14:18:53;25.00;;;11.83;;
13741;SDS011;8461;52.356;10.704;2023-01-25T14:21:20;22.57;;;10.70;;
13741;SDS011;8461;52.356;10.704;2023-01-25T14:23:47;24.33;;;9.80;;
13741;SDS011;8461;52.356;10.704;2023-01-25T14:28:47;19.07;;;9.23;;
13741;SDS011;8461;52.356;10.704;2023-01-25T14:31:17;20.90;;;9.80;;
13741;SDS011;8461;52.356;10.704;2023-01-25T14:33:52;21.93;;;9.97;;
13741;SDS011;8461;52.356;10.704;2023-01-25T14:36:22;21.30;;;10.60;;
13741;SDS011;8461;52.356;10.704;2023-01-25T14:38:51;21.90;;;10.37;;
13741;SDS011;8461;52.356;10.704;2023-01-25T14:41:33;23.57;;;12.30;;
13741;SDS011;8461;52.356;10.704;2023-01-25T14:44:09;23.30;;;9.87;;
13741;SDS011;8461;52.356;10.704;2023-01-25T14:46:37;22.20;;;10.33;;
13741;SDS011;8461;52.356;10.704;2023-01-25T14:49:19;24.07;;;10.13;;
13741;SDS011;8461;52.356;10.704;2023-01-25T14:51:58;24.30;;;10.63;;
13741;SDS011;8461;52.356;10.704;2023-01-25T14:54:30;20.17;;;11.00;;
13741;SDS011;8461;52.356;10.704;2023-01-25T14:57:06;23.23;;;10.97;;
13741;SDS011;8461;52.356;10.704;2023-01-25T14:59:49;20.00;;;9.87;;
13741;SDS011;8461;52.356;10.704;2023-01-25T15:05:18;21.00;;;10.87;;
13741;SDS011;8461;52.356;10.704;2023-01-25T15:12:56;24.17;;;11.47;;
13741;SDS011;8461;52.356;10.704;2023-01-25T15:15:25;21.07;;;10.20;;
13741;SDS011;8461;52.356;10.704;2023-01-25T15:17:53;28.67;;;13.73;;
13741;SDS011;8461;52.356;10.704;2023-01-25T15:23:20;21.43;;;11.03;;
13741;SDS011;8461;52.356;10.704;2023-01-25T15:25:52;24.63;;;10.73;;
13741;SDS011;8461;52.356;10.704;2023-01-25T15:28:23;24.63;;;11.27;;
13741;SDS011;8461;52.356;10.704;2023-01-25T15:30:50;22.50;;;11.03;;
13741;SDS011;8461;52.356;10.704;2023-01-25T15:33:22;26.43;;;11.83;;
13741;SDS011;8461;52.356;10.704;2023-01-25T15:35:50;24.10;;;11.53;;
13741;SDS011;8461;52.356;10.704;2023-01-25T15:38:16;22.17;;;11.00;;
13741;SDS011;8461;52.356;10.704;2023-01-25T15:40:43;21.60;;;10.80;;
13741;SDS011;8461;52.356;10.704;2023-01-25T15:43:10;15.20;;;8.73;;
13741;SDS011;8461;52.356;10.704;2023-01-25T15:45:36;14.13;;;7.77;;
13741;SDS011;8461;52.356;10.704;2023-01-25T15:48:03;20.63;;;8.27;;
13741;SDS011;8461;52.356;10.704;2023-01-25T15:50:29;13.63;;;7.67;;
13741;SDS011;8461;52.356;10.704;2023-01-25T15:52:54;21.97;;;8.63;;
13741;SDS011;8461;52.356;10.704;2023-01-25T15:55:20;18.43;;;9.17;;
13741;SDS011;8461;52.356;10.704;2023-01-25T15:57:47;18.50;;;9.17;;
13741;SDS011;8461;52.356;10.704;2023-01-25T16:00:13;19.13;;;9.57;;
13741;SDS011;8461;52.356;10.704;2023-01-25T16:02:44;16.27;;;9.70;;
13741;SDS011;8461;52.356;10.704;2023-01-25T16:05:10;23.23;;;11.80;;
13741;SDS011;8461;52.356;10.704;2023-01-25T16:07:37;22.97;;;10.13;;
13741;SDS011;8461;52.356;10.704;2023-01-25T16:10:03;23.07;;;12.03;;
13741;SDS011;8461;52.356;10.704;2023-01-25T16:12:30;20.63;;;10.93;;
13741;SDS011;8461;52.356;10.704;2023-01-25T16:14:58;22.33;;;12.23;;
13741;SDS011;8461;52.356;10.704;2023-01-25T16:17:24;19.40;;;10.70;;
13741;SDS011;8461;52.356;10.704;2023-01-25T16:19:51;20.40;;;10.20;;
13741;SDS011;8461;52.356;10.704;2023-01-25T16:22:16;15.80;;;9.30;;
13741;SDS011;8461;52.356;10.704;2023-01-25T16:24:43;19.70;;;8.37;;
13741;SDS011;8461;52.356;10.704;2023-01-25T16:27:18;19.27;;;9.53;;
13741;SDS011;8461;52.356;10.704;2023-01-25T16:29:49;23.33;;;9.63;;
13741;SDS011;8461;52.356;10.704;2023-01-25T16:32:15;17.17;;;9.30;;
13741;SDS011;8461;52.356;10.704;2023-01-25T16:34:41;28.43;;;9.40;;
13741;SDS011;8461;52.356;10.704;2023-01-25T16:37:08;19.33;;;10.50;;
13741;SDS011;8461;52.356;10.704;2023-01-25T16:39:38;21.37;;;9.47;;
13741;SDS011;8461;52.356;10.704;2023-01-25T16:42:04;19.20;;;10.07;;